Morrisdale, Pennsylvania
Current Conditions -  °F | °C
As of 1:54 AM on Wednesday 26 Nov 2014 (Local Time) from KFIG Reporting Station
Clear Clear  
Wind Chill: 30°   Ceiling: Unl
Heat Index: 30°   Visibility: 10mi
Dew Point: 24°   Wind: 0mph
Humidity: 79%   Direction: NA
Pressure: 30.16"   Gusts: NA
Location:  40.95°N, 78.23°W
Report Text: KFIG 260654Z AUTO 00000KT 10SM CLR M01/M04 A3016 RMK AO2 SLP226 T10111044
Loading
Personal Weather Stations






























Interactive Weather Map New forecast layout! Learn more

10-Day Weather Forecast

Advertisements
Track Severe Weather on mobile